Hopewell Township, New Jersey
Current Conditions -  °F | °C
As of 11:53 AM on Tuesday 21 Oct 2014 (Local Time) from KTTN Reporting Station
Broken Clouds Broken Clouds  
Wind Chill: 62°   Ceiling: 11000
Heat Index: 62°   Visibility: 10mi
Dew Point: 49°   Wind: 3mph
Humidity: 62%   Direction: 190°S
Pressure: 29.86"   Gusts: NA
Location:  40.3975°N, 74.7746°W
Report Text: KTTN 211553Z 19003KT 10SM SCT080 BKN110 17/09 A2986 RMK AO2 SLP107 T01670094
Loading
Personal Weather Stations






























Interactive Weather Map
Tropical Storm Tracking
New forecast layout! Learn more

10-Day Weather Forecast

Advertisements
Track Severe Weather on mobile